createdAt,value
2023-02-06T00:00:44.027Z,-7.82
2023-02-06T00:03:50.912Z,-7.88
2023-02-06T00:06:59.406Z,-7.90
2023-02-06T00:10:06.297Z,-7.93
2023-02-06T00:13:12.409Z,-7.98
2023-02-06T00:16:21.373Z,-8.09
2023-02-06T00:19:27.385Z,-8.13
2023-02-06T00:22:37.182Z,-8.17
2023-02-06T00:25:43.149Z,-8.25
2023-02-06T00:28:50.609Z,-8.26
2023-02-06T00:31:56.892Z,-8.33
2023-02-06T00:35:11.125Z,-8.34
2023-02-06T00:38:22.345Z,-8.42
2023-02-06T00:41:29.126Z,-8.40
2023-02-06T00:44:35.054Z,-8.48
2023-02-06T00:47:41.855Z,-8.61
2023-02-06T00:50:50.494Z,-8.62
2023-02-06T00:53:59.978Z,-8.63
2023-02-06T00:57:05.895Z,-8.62
2023-02-06T01:00:16.041Z,-8.72
2023-02-06T01:03:21.912Z,-8.89
2023-02-06T01:06:28.769Z,-8.92
2023-02-06T01:09:37.401Z,-8.79
2023-02-06T01:12:44.298Z,-8.80
2023-02-06T01:15:52.163Z,-8.71
2023-02-06T01:18:59.367Z,-8.68
2023-02-06T01:22:05.351Z,-8.63
2023-02-06T01:25:14.905Z,-8.67
2023-02-06T01:28:21.165Z,-8.76
2023-02-06T01:31:32.025Z,-8.67
2023-02-06T01:34:37.919Z,-8.58
2023-02-06T01:37:45.323Z,-8.58
2023-02-06T01:41:00.371Z,-8.56
2023-02-06T01:44:22.702Z,-8.46
2023-02-06T01:47:30.396Z,-8.43
2023-02-06T01:50:40.367Z,-8.38
2023-02-06T01:53:56.792Z,-8.35
2023-02-06T01:57:14.545Z,-8.35
2023-02-06T02:00:27.640Z,-8.35
2023-02-06T02:03:39.997Z,-8.34
2023-02-06T02:06:47.461Z,-8.28
2023-02-06T02:09:58.749Z,-8.21
2023-02-06T02:13:17.603Z,-8.15
2023-02-06T02:16:39.770Z,-8.15
2023-02-06T02:20:48.869Z,-8.14
2023-02-06T02:24:07.943Z,-8.16
2023-02-06T02:27:47.772Z,-8.14
2023-02-06T02:31:41.318Z,-8.18
2023-02-06T02:35:25.765Z,-8.10
2023-02-06T02:38:55.057Z,-8.09
2023-02-06T02:42:14.743Z,-8.10
2023-02-06T02:45:33.329Z,-8.17
2023-02-06T02:48:47.246Z,-8.12
2023-02-06T02:51:58.666Z,-8.20
2023-02-06T02:55:23.603Z,-8.09
2023-02-06T02:58:44.796Z,-8.06
2023-02-06T03:02:02.637Z,-8.03
2023-02-06T03:05:14.754Z,-8.10
2023-02-06T03:08:47.145Z,-8.11
2023-02-06T03:12:14.670Z,-8.16
2023-02-06T03:15:34.942Z,-8.27
2023-02-06T03:18:50.078Z,-8.35
2023-02-06T03:21:57.001Z,-8.28
2023-02-06T03:25:13.316Z,-8.36
2023-02-06T03:28:31.164Z,-8.37
2023-02-06T03:31:45.882Z,-8.41
2023-02-06T03:35:06.465Z,-8.54
2023-02-06T03:38:13.860Z,-8.56
2023-02-06T03:41:34.969Z,-8.57
2023-02-06T03:44:57.520Z,-8.54
2023-02-06T03:48:18.294Z,-8.54
2023-02-06T03:51:31.919Z,-8.62
2023-02-06T03:54:46.100Z,-8.72
2023-02-06T03:58:09.031Z,-8.71
2023-02-06T04:01:17.540Z,-8.77
2023-02-06T04:04:29.372Z,-8.90
2023-02-06T04:07:43.063Z,-8.92
2023-02-06T04:10:49.546Z,-9.00
2023-02-06T04:13:58.920Z,-9.05
2023-02-06T04:17:09.799Z,-9.22
2023-02-06T04:20:17.106Z,-9.15
2023-02-06T04:23:24.291Z,-9.18
2023-02-06T04:26:31.201Z,-9.23
2023-02-06T04:29:39.724Z,-9.26
2023-02-06T04:32:46.786Z,-9.33
2023-02-06T04:35:52.726Z,-9.33
2023-02-06T04:38:59.549Z,-9.35
2023-02-06T04:42:05.836Z,-9.39
2023-02-06T04:45:15.745Z,-9.42
2023-02-06T04:48:24.714Z,-9.36
2023-02-06T04:51:31.491Z,-9.36
2023-02-06T04:54:37.459Z,-9.44
2023-02-06T04:57:44.539Z,-9.46
2023-02-06T05:00:58.452Z,-9.47
2023-02-06T05:04:05.460Z,-9.58
2023-02-06T05:07:11.379Z,-9.59
2023-02-06T05:10:18.691Z,-9.52
2023-02-06T05:13:30.480Z,-9.56
2023-02-06T05:16:39.901Z,-9.53
2023-02-06T05:19:46.119Z,-9.56
2023-02-06T05:22:52.902Z,-9.48
2023-02-06T05:25:59.806Z,-9.45
2023-02-06T05:29:27.770Z,-9.38
2023-02-06T05:32:36.266Z,-9.34
2023-02-06T05:35:43.904Z,-9.29
2023-02-06T05:38:54.122Z,-9.25
2023-02-06T05:42:00.960Z,-9.25
2023-02-06T05:45:08.586Z,-9.29
2023-02-06T05:48:17.933Z,-9.27
2023-02-06T05:51:23.778Z,-9.18
2023-02-06T05:54:30.615Z,-9.17
2023-02-06T05:57:36.693Z,-9.17
2023-02-06T06:00:51.493Z,-9.15
2023-02-06T06:04:09.723Z,-9.02
2023-02-06T06:07:16.691Z,-8.90
2023-02-06T06:10:22.940Z,-8.74
2023-02-06T06:13:30.611Z,-8.65
2023-02-06T06:16:41.788Z,-8.63
2023-02-06T06:19:51.225Z,-8.61
2023-02-06T06:22:57.338Z,-8.62
2023-02-06T06:26:04.139Z,-8.50
2023-02-06T06:29:15.179Z,-8.33
2023-02-06T06:32:22.488Z,-8.32
2023-02-06T06:35:31.180Z,-8.13
2023-02-06T06:38:38.707Z,-8.09
2023-02-06T06:41:44.950Z,-7.97
2023-02-06T06:44:51.799Z,-7.97
2023-02-06T06:47:57.914Z,-7.97
2023-02-06T06:51:07.841Z,-7.93
2023-02-06T06:54:14.702Z,-7.84
2023-02-06T06:57:23.828Z,-7.73
2023-02-06T07:00:41.422Z,-7.60
2023-02-06T07:03:49.265Z,-7.35
2023-02-06T07:06:57.877Z,-7.26
2023-02-06T07:10:04.867Z,-7.29
2023-02-06T07:13:11.027Z,-7.29
2023-02-06T07:16:17.910Z,-7.34
2023-02-06T07:19:24.308Z,-7.24
2023-02-06T07:22:51.528Z,-6.99
2023-02-06T07:26:08.902Z,-6.99
2023-02-06T07:29:27.213Z,-7.04
2023-02-06T07:32:33.999Z,-7.00
2023-02-06T07:35:39.853Z,-7.17
2023-02-06T07:38:51.249Z,-7.18
2023-02-06T07:41:57.290Z,-7.29
2023-02-06T07:45:17.152Z,-7.31
2023-02-06T07:48:23.215Z,-7.26
2023-02-06T07:51:33.042Z,-7.03
2023-02-06T07:54:41.643Z,-6.60
2023-02-06T07:57:48.490Z,-6.50
2023-02-06T08:00:54.963Z,-6.38
2023-02-06T08:04:08.897Z,-6.15
2023-02-06T08:07:16.713Z,-6.30
2023-02-06T08:10:32.929Z,-6.13
2023-02-06T08:13:43.070Z,-5.70
2023-02-06T08:16:49.884Z,-5.39
2023-02-06T08:20:06.837Z,-4.93
2023-02-06T08:23:13.607Z,-4.33
2023-02-06T08:26:22.380Z,-4.50
2023-02-06T08:29:30.041Z,-4.28
2023-02-06T08:32:39.481Z,-4.32
2023-02-06T08:35:52.378Z,-3.92
2023-02-06T08:39:09.873Z,-3.56
2023-02-06T08:42:19.273Z,-2.56
2023-02-06T08:45:30.426Z,-2.35
2023-02-06T08:48:37.248Z,-1.54
2023-02-06T08:51:44.372Z,-0.99
2023-02-06T08:54:54.135Z,-0.76
2023-02-06T08:58:08.901Z,-0.42
2023-02-06T09:01:26.731Z,-0.17
2023-02-06T09:04:35.759Z,0.46
2023-02-06T09:07:42.514Z,0.16
2023-02-06T09:10:48.420Z,0.55
2023-02-06T09:14:01.303Z,0.76
2023-02-06T09:17:07.478Z,0.48
2023-02-06T09:20:14.585Z,-0.28
2023-02-06T09:23:20.826Z,-0.05
2023-02-06T09:26:30.918Z,0.05
2023-02-06T09:29:39.670Z,-0.04
2023-02-06T09:32:46.707Z,-0.63
2023-02-06T09:35:52.746Z,-0.57
2023-02-06T09:39:00.796Z,-1.29
2023-02-06T09:42:15.072Z,-0.76
2023-02-06T09:45:30.395Z,0.00
2023-02-06T09:48:42.325Z,-0.11
2023-02-06T09:52:29.240Z,0.23
2023-02-06T09:55:47.511Z,0.52
2023-02-06T09:59:07.541Z,0.31
2023-02-06T10:02:47.932Z,0.19
2023-02-06T10:06:14.381Z,0.15
2023-02-06T10:09:31.612Z,0.85
2023-02-06T10:12:47.995Z,0.93
2023-02-06T10:16:02.286Z,0.61
2023-02-06T10:19:24.472Z,0.66
2023-02-06T10:22:42.071Z,0.47
2023-02-06T10:26:17.590Z,1.40
2023-02-06T10:29:31.876Z,0.23
2023-02-06T10:32:54.198Z,0.92
2023-02-06T10:36:25.617Z,1.15
2023-02-06T10:40:04.361Z,0.95
2023-02-06T10:43:29.354Z,0.17
2023-02-06T10:46:48.433Z,-0.78
2023-02-06T10:50:05.050Z,-0.84
2023-02-06T10:53:25.112Z,-1.14
2023-02-06T10:56:38.804Z,-1.62
2023-02-06T10:59:57.740Z,-1.85
2023-02-06T11:03:11.015Z,-2.56
2023-02-06T11:06:26.008Z,-2.64
2023-02-06T11:09:40.245Z,-2.56
2023-02-06T11:13:03.944Z,-1.84
2023-02-06T11:16:23.660Z,-1.33
2023-02-06T11:19:40.603Z,-0.49
2023-02-06T11:22:53.012Z,-0.20
2023-02-06T11:26:17.493Z,0.31
2023-02-06T11:29:30.000Z,0.24
2023-02-06T11:32:52.901Z,0.84
2023-02-06T11:36:33.021Z,1.50
2023-02-06T11:39:42.608Z,1.59
2023-02-06T11:42:55.664Z,1.84
2023-02-06T11:46:21.615Z,1.77
2023-02-06T11:49:31.945Z,1.00
2023-02-06T11:52:38.983Z,0.82
2023-02-06T11:55:45.623Z,0.83
2023-02-06T11:59:14.890Z,1.15
2023-02-06T12:02:36.674Z,1.69
2023-02-06T12:05:47.357Z,1.48
2023-02-06T12:08:56.620Z,1.83
2023-02-06T12:12:13.331Z,1.41
2023-02-06T12:15:45.369Z,1.27
2023-02-06T12:19:00.683Z,0.47
2023-02-06T12:22:21.613Z,0.49
2023-02-06T12:25:36.107Z,0.38
2023-02-06T12:28:57.827Z,0.49
2023-02-06T12:32:18.379Z,-0.36
2023-02-06T12:35:45.425Z,0.18
2023-02-06T12:39:01.304Z,0.45
2023-02-06T12:42:37.218Z,-0.03
2023-02-06T12:45:55.211Z,0.05
2023-02-06T12:49:18.831Z,-0.12
2023-02-06T12:52:34.579Z,-0.50
2023-02-06T12:56:00.631Z,-0.52
2023-02-06T13:00:10.960Z,-0.26
2023-02-06T13:03:30.446Z,0.08
2023-02-06T13:07:02.727Z,0.03
2023-02-06T13:10:30.057Z,-0.35
2023-02-06T13:13:43.749Z,-0.35
2023-02-06T13:16:58.435Z,-0.29
2023-02-06T13:20:17.860Z,-0.39
2023-02-06T13:23:29.568Z,-0.72
2023-02-06T13:27:16.728Z,-0.30
2023-02-06T13:30:51.070Z,0.00
2023-02-06T13:34:04.443Z,-0.41
2023-02-06T13:37:30.925Z,-0.99
2023-02-06T13:40:40.825Z,-1.06
2023-02-06T13:43:57.111Z,-1.05
2023-02-06T13:47:34.885Z,-1.39
2023-02-06T13:51:17.028Z,-2.16
2023-02-06T13:55:06.218Z,-2.58
2023-02-06T13:58:48.808Z,-3.15
2023-02-06T14:01:57.611Z,-3.39
2023-02-06T14:05:07.991Z,-3.66
2023-02-06T14:08:30.588Z,-3.82
2023-02-06T14:12:17.997Z,-3.90
2023-02-06T14:15:45.143Z,-4.02
2023-02-06T14:19:09.075Z,-4.36
2023-02-06T14:22:38.189Z,-4.24
2023-02-06T14:26:16.000Z,-4.24
2023-02-06T14:29:49.069Z,-4.33
2023-02-06T14:33:19.625Z,-4.18
2023-02-06T14:37:04.001Z,-4.17
2023-02-06T14:40:22.674Z,-4.11
2023-02-06T14:43:38.278Z,-4.36
2023-02-06T14:46:45.297Z,-4.36
2023-02-06T14:49:58.331Z,-4.37
2023-02-06T14:53:12.632Z,-4.55
2023-02-06T14:56:27.165Z,-4.48
2023-02-06T14:59:34.129Z,-4.58
2023-02-06T15:02:41.328Z,-4.66
2023-02-06T15:05:50.448Z,-4.70
2023-02-06T15:08:57.761Z,-4.82
2023-02-06T15:12:21.536Z,-4.83
2023-02-06T15:15:32.357Z,-5.01
2023-02-06T15:18:40.449Z,-5.05
2023-02-06T15:21:50.927Z,-5.07
2023-02-06T15:25:22.112Z,-5.23
2023-02-06T15:28:33.914Z,-5.30
2023-02-06T15:31:39.988Z,-5.19
2023-02-06T15:34:49.916Z,-5.21
2023-02-06T15:37:59.731Z,-5.24
2023-02-06T15:41:11.632Z,-5.29
2023-02-06T15:44:31.276Z,-5.32
2023-02-06T15:47:39.280Z,-5.38
2023-02-06T15:50:57.359Z,-5.45
2023-02-06T15:54:23.851Z,-5.50
2023-02-06T15:57:36.657Z,-5.68
2023-02-06T16:00:45.625Z,-5.70
2023-02-06T16:04:01.476Z,-5.71
2023-02-06T16:07:19.367Z,-5.77
2023-02-06T16:10:32.120Z,-5.86
2023-02-06T16:13:40.216Z,-5.91
2023-02-06T16:17:01.363Z,-6.01
2023-02-06T16:20:33.407Z,-6.02
2023-02-06T16:23:49.850Z,-6.05
2023-02-06T16:26:59.499Z,-6.12
2023-02-06T16:30:06.356Z,-6.14
2023-02-06T16:33:28.961Z,-6.18
2023-02-06T16:36:36.411Z,-6.26
2023-02-06T16:39:45.541Z,-6.33
2023-02-06T16:42:54.319Z,-6.45
2023-02-06T16:46:02.872Z,-6.46
2023-02-06T16:49:15.148Z,-6.52
2023-02-06T16:52:28.473Z,-6.53
2023-02-06T16:55:34.699Z,-6.56
2023-02-06T16:58:46.729Z,-6.63
2023-02-06T17:01:52.840Z,-6.63
2023-02-06T17:05:00.008Z,-6.65
2023-02-06T17:08:16.579Z,-6.76
2023-02-06T17:11:23.437Z,-6.72
2023-02-06T17:14:34.896Z,-6.74
2023-02-06T17:17:43.032Z,-6.72
2023-02-06T17:20:53.731Z,-6.72
2023-02-06T17:24:00.657Z,-6.79
2023-02-06T17:27:07.467Z,-6.79
2023-02-06T17:30:22.837Z,-6.86
2023-02-06T17:33:28.962Z,-6.90
2023-02-06T17:36:39.804Z,-6.97
2023-02-06T17:39:45.866Z,-6.97
2023-02-06T17:42:53.787Z,-7.00
2023-02-06T17:46:02.528Z,-7.02
2023-02-06T17:49:09.558Z,-7.04
2023-02-06T17:52:16.488Z,-7.10
2023-02-06T17:55:24.020Z,-7.15
2023-02-06T17:58:33.464Z,-7.20
2023-02-06T18:01:43.373Z,-7.18
2023-02-06T18:04:53.613Z,-7.20
2023-02-06T18:08:01.192Z,-7.24
2023-02-06T18:11:12.304Z,-7.32
2023-02-06T18:14:21.103Z,-7.34
2023-02-06T18:17:31.129Z,-7.36
2023-02-06T18:20:39.449Z,-7.44
2023-02-06T18:23:46.591Z,-7.43
2023-02-06T18:26:53.487Z,-7.47
2023-02-06T18:29:59.870Z,-7.62
2023-02-06T18:33:09.649Z,-7.72
2023-02-06T18:36:15.945Z,-7.72
2023-02-06T18:39:23.400Z,-7.70
2023-02-06T18:42:42.872Z,-7.71
2023-02-06T18:46:10.203Z,-7.76
2023-02-06T18:49:33.541Z,-7.76
2023-02-06T18:52:54.408Z,-7.78
2023-02-06T18:56:18.754Z,-7.86
2023-02-06T18:59:42.668Z,-7.89
2023-02-06T19:03:03.632Z,-8.01
2023-02-06T19:06:32.148Z,-8.08
2023-02-06T19:10:00.888Z,-8.27
2023-02-06T19:13:21.513Z,-8.38
2023-02-06T19:16:47.555Z,-8.30
2023-02-06T19:20:11.081Z,-8.30
2023-02-06T19:23:35.145Z,-8.37
2023-02-06T19:26:56.734Z,-8.55
2023-02-06T19:30:17.977Z,-8.57
2023-02-06T19:33:43.837Z,-8.62
2023-02-06T19:37:04.708Z,-8.74
2023-02-06T19:40:28.119Z,-8.81
2023-02-06T19:43:49.554Z,-8.81
2023-02-06T19:47:10.366Z,-8.85
2023-02-06T19:50:31.170Z,-8.81
2023-02-06T19:53:53.844Z,-8.75
2023-02-06T19:57:19.591Z,-8.77
2023-02-06T20:00:40.610Z,-8.87
2023-02-06T20:04:04.081Z,-8.92
2023-02-06T20:07:24.878Z,-8.91
2023-02-06T20:10:45.769Z,-8.93
2023-02-06T20:14:09.617Z,-8.90
2023-02-06T20:17:33.179Z,-8.95
2023-02-06T20:20:53.956Z,-8.97
2023-02-06T20:24:25.477Z,-9.15
2023-02-06T20:27:46.298Z,-9.17
2023-02-06T20:31:14.731Z,-9.29
2023-02-06T20:34:36.154Z,-9.33
2023-02-06T20:38:08.884Z,-9.33
2023-02-06T20:41:33.164Z,-9.37
2023-02-06T20:44:54.032Z,-9.42
2023-02-06T20:48:17.726Z,-9.47
2023-02-06T20:51:38.808Z,-9.44
2023-02-06T20:55:02.360Z,-9.45
2023-02-06T20:58:23.527Z,-9.43
2023-02-06T21:01:45.451Z,-9.50
2023-02-06T21:05:09.645Z,-9.53
2023-02-06T21:08:33.560Z,-9.47
2023-02-06T21:11:57.618Z,-9.53
2023-02-06T21:15:21.417Z,-9.45
2023-02-06T21:18:42.926Z,-9.45
2023-02-06T21:22:07.108Z,-9.58
2023-02-06T21:25:28.650Z,-9.73
2023-02-06T21:28:50.248Z,-9.61
2023-02-06T21:32:14.636Z,-9.61
2023-02-06T21:35:37.112Z,-9.60
2023-02-06T21:39:00.964Z,-9.67
2023-02-06T21:42:26.433Z,-9.64
2023-02-06T21:45:50.128Z,-9.61
2023-02-06T21:49:11.871Z,-9.71
2023-02-06T21:52:32.654Z,-9.74
2023-02-06T21:55:55.943Z,-9.79
2023-02-06T21:59:16.957Z,-9.80
2023-02-06T22:02:37.607Z,-9.78
2023-02-06T22:06:12.710Z,-9.86
2023-02-06T22:09:33.662Z,-9.89
2023-02-06T22:12:57.097Z,-9.89
2023-02-06T22:16:21.804Z,-9.87
2023-02-06T22:19:42.716Z,-9.87
2023-02-06T22:23:06.664Z,-9.91
2023-02-06T22:26:30.353Z,-9.91
2023-02-06T22:29:53.618Z,-9.93
2023-02-06T22:33:14.276Z,-9.97
2023-02-06T22:36:38.034Z,-9.96
2023-02-06T22:39:59.283Z,-9.92
2023-02-06T22:43:19.975Z,-10.01
2023-02-06T22:46:43.478Z,-10.06
2023-02-06T22:50:04.108Z,-10.04
2023-02-06T22:53:35.160Z,-10.11
2023-02-06T22:56:55.857Z,-10.13
2023-02-06T23:00:18.697Z,-10.05
2023-02-06T23:03:41.997Z,-10.06
2023-02-06T23:07:06.183Z,-10.04
2023-02-06T23:10:33.014Z,-10.08
2023-02-06T23:13:56.401Z,-10.04
2023-02-06T23:17:17.085Z,-10.06
2023-02-06T23:20:42.016Z,-10.11
2023-02-06T23:24:03.232Z,-10.11
2023-02-06T23:27:25.518Z,-10.06
2023-02-06T23:30:46.324Z,-10.04
2023-02-06T23:34:07.325Z,-10.04
2023-02-06T23:37:30.622Z,-10.13
2023-02-06T23:40:51.600Z,-10.06
2023-02-06T23:44:18.358Z,-9.99
2023-02-06T23:47:39.778Z,-10.00
2023-02-06T23:51:00.781Z,-10.04
2023-02-06T23:54:24.640Z,-9.97
2023-02-06T23:57:45.387Z,-9.91
